Aldershot, United Kingdom
Current Conditions -  °F | °C
As of 6:50 AM on Sunday 21 Dec 2014 (Local Time) from EGVO Reporting Station
Overcast Overcast  
Wind Chill: 37°   Ceiling: 2500
Heat Index: 45°   Visibility: 6mi
Dew Point: 39°   Wind: 16mph
Humidity: 81%   Direction: 210°SSW
Pressure: 30.36"   Gusts: NA
Location:  51.25°N, 0.77°W
Report Text: EGVO 210650Z 21014KT 9999 FEW010 OVC025 07/04 Q1028 BLU
Loading
Personal Weather Stations






























Interactive Weather Map New forecast layout! Learn more

10-Day Weather Forecast

Advertisements
Track Severe Weather on mobile